Terminal Aerodrome Forecast
Issued by NWS Billings, MT

Home | Current Version | Previous Version | Text Only | Print | Product List | Glossary On
Versions: 1 2 3 4 5 6 7 8 9 10 11 12 13 14 15 16 17 18 19 20 21 22 23 24 25
000
FTUS45 KBYZ 252335
TAFBIL
TAF
KBIL 252335Z 2600/2624 33014G24KT P6SM VCSH SCT040 OVC060
     FM260400 36010KT 3SM -SN BR OVC015
     FM260800 04006KT 2SM -SN BR OVC015
     FM261200 04006KT 1SM -SN BR OVC015
     FM261800 06008KT P6SM VCSH SCT020 OVC040=

USA.gov is the U.S. government's official web portal to all federal, state and local government web resources and services.